コロンボ の空港の天気 - METARとTAF

バンダラナイケ国際空港 ( VCBI / CMB ) - スリランカ コロンボ
飛行場実況気象(Metar)
観測時間10/16 11:40 IST (10/16 06:10 UTC)
風向・風速南西 4m/s
視程10km以上
天気現象
全天の4割程度の雲 雲底高度 520m
少しの雲 雲底高度 580m
気温29℃
湿度74%
気圧1013hPa
METARVCBI 160610Z 23007KT 190V290 9999 SCT017 FEW019TCU 29/24 Q1013 NOSIG RMK NE/E/SE/SW/W
過去の天気等 Google飛行場航空写真 Wunderground天気予報

過去48時間のMETAR

飛行場予報(TAF)
発表時間: 10/16 10:30 IST (10/16 05:00 UTC)
予報対象時間: 16日11時 IST ~ 17日17時 IST
風向・風速西南西 4m/s
視程10km以上
全天の4割程度の雲 雲底高度 550m
16日17時 IST ~ 16日23時 IST に 確率 40% で一時的に
視程6000m
16日19時 IST ~ 16日21時 IST に徐々に
風向・風速不定 3m/s
TAF VCBI 160500Z 1606/1712 24008KT 9999 SCT018 TX30/1607Z TN24/1700Z
PROB40 TEMPO 1612/1618 6000 -TSRA/SHRA SCT016 FEW020CB
BECMG 1614/1616 VRB05KT